createdAt,value
2019-05-03T00:02:13.200Z,3.23
2019-05-03T00:04:44.501Z,3.17
2019-05-03T00:07:14.130Z,3.50
2019-05-03T00:09:43.725Z,3.30
2019-05-03T00:12:13.789Z,3.80
2019-05-03T00:14:45.128Z,2.90
2019-05-03T00:17:14.796Z,2.83
2019-05-03T00:19:44.432Z,2.63
2019-05-03T00:22:14.022Z,3.00
2019-05-03T00:24:43.759Z,3.30
2019-05-03T00:27:13.367Z,3.47
2019-05-03T00:29:43.085Z,2.87
2019-05-03T00:32:13.022Z,3.20
2019-05-03T00:34:52.026Z,2.80
2019-05-03T00:37:25.961Z,3.20
2019-05-03T00:39:58.038Z,3.27
2019-05-03T00:42:27.714Z,2.83
2019-05-03T00:44:57.383Z,3.30
2019-05-03T00:47:27.030Z,3.47
2019-05-03T00:49:56.740Z,2.90
2019-05-03T00:52:26.434Z,2.90
2019-05-03T00:54:56.172Z,3.40
2019-05-03T00:57:27.431Z,3.20
2019-05-03T00:59:57.115Z,2.90
2019-05-03T01:02:26.830Z,3.10
2019-05-03T01:04:56.495Z,3.03
2019-05-03T01:07:26.194Z,2.90
2019-05-03T01:09:55.791Z,3.70
2019-05-03T01:12:25.488Z,3.20
2019-05-03T01:14:56.861Z,3.50
2019-05-03T01:17:26.520Z,3.50
2019-05-03T01:19:56.279Z,3.10
2019-05-03T01:22:25.919Z,3.23
2019-05-03T01:24:55.527Z,3.43
2019-05-03T01:27:25.333Z,3.27
2019-05-03T01:29:54.966Z,3.40
2019-05-03T01:32:24.610Z,3.77
2019-05-03T01:34:54.206Z,3.63
2019-05-03T01:37:23.802Z,3.20
2019-05-03T01:39:53.426Z,3.00
2019-05-03T01:42:23.063Z,2.97
2019-05-03T01:44:52.877Z,3.03
2019-05-03T01:47:26.901Z,2.87
2019-05-03T01:49:58.131Z,3.57
2019-05-03T01:52:32.465Z,3.43
2019-05-03T01:55:03.343Z,3.27
2019-05-03T01:57:33.103Z,3.23
2019-05-03T02:00:03.233Z,3.10
2019-05-03T02:02:34.492Z,2.77
2019-05-03T02:05:13.797Z,2.73
2019-05-03T02:07:43.402Z,3.20
2019-05-03T02:10:13.520Z,2.67
2019-05-03T02:12:43.228Z,2.90
2019-05-03T02:15:13.229Z,3.10
2019-05-03T02:17:42.834Z,3.10
2019-05-03T02:20:13.187Z,3.30
2019-05-03T02:22:42.970Z,2.90
2019-05-03T02:25:13.355Z,3.20
2019-05-03T02:27:43.102Z,3.23
2019-05-03T02:30:14.484Z,2.87
2019-05-03T02:32:44.418Z,2.70
2019-05-03T02:35:14.449Z,2.80
2019-05-03T02:37:46.233Z,3.20
2019-05-03T02:40:16.241Z,2.60
2019-05-03T02:42:47.533Z,3.30
2019-05-03T02:45:18.835Z,3.17
2019-05-03T02:47:55.294Z,2.70
2019-05-03T02:50:26.080Z,3.27
2019-05-03T02:52:55.776Z,3.17
2019-05-03T02:55:26.288Z,3.23
2019-05-03T02:57:56.420Z,3.10
2019-05-03T03:00:56.403Z,3.20
2019-05-03T03:03:27.722Z,3.57
2019-05-03T03:06:00.494Z,3.37
2019-05-03T03:08:36.550Z,3.40
2019-05-03T03:11:08.568Z,3.33
2019-05-03T03:13:39.797Z,3.00
2019-05-03T03:16:11.042Z,3.30
2019-05-03T03:18:41.916Z,4.13
2019-05-03T03:21:20.881Z,3.27
2019-05-03T03:24:07.274Z,3.60
2019-05-03T03:26:43.192Z,4.10
2019-05-03T03:29:16.161Z,4.57
2019-05-03T03:32:02.676Z,3.93
2019-05-03T03:34:53.298Z,3.60
2019-05-03T03:37:15.609Z,4.77
2019-05-03T03:39:46.057Z,4.43
2019-05-03T03:42:17.667Z,3.97
2019-05-03T03:44:50.079Z,3.97
2019-05-03T03:47:21.685Z,3.83
2019-05-03T03:49:55.297Z,5.33
2019-05-03T03:52:27.573Z,5.00
2019-05-03T03:55:01.044Z,4.43
2019-05-03T03:57:35.648Z,4.47
2019-05-03T04:00:08.481Z,4.67
2019-05-03T04:02:39.755Z,4.60
2019-05-03T04:05:10.301Z,4.30
2019-05-03T04:07:40.402Z,4.00
2019-05-03T04:10:10.848Z,5.00
2019-05-03T04:12:42.224Z,4.43
2019-05-03T04:15:29.132Z,3.93
2019-05-03T04:17:58.905Z,4.03
2019-05-03T04:20:30.500Z,4.53
2019-05-03T04:23:00.639Z,3.80
2019-05-03T04:25:30.687Z,4.60
2019-05-03T04:28:00.448Z,4.30
2019-05-03T04:30:30.065Z,4.37
2019-05-03T04:32:59.691Z,4.17
2019-05-03T04:35:29.282Z,4.30
2019-05-03T04:37:58.992Z,3.87
2019-05-03T04:40:28.586Z,4.03
2019-05-03T04:42:58.225Z,4.00
2019-05-03T04:45:27.821Z,4.20
2019-05-03T04:47:57.531Z,4.80
2019-05-03T04:50:27.128Z,4.60
2019-05-03T04:52:56.936Z,4.27
2019-05-03T04:55:27.089Z,4.67
2019-05-03T04:57:56.750Z,4.33
2019-05-03T05:00:26.620Z,3.73
2019-05-03T05:02:56.277Z,4.50
2019-05-03T05:05:26.478Z,4.17
2019-05-03T05:07:56.517Z,4.50
2019-05-03T05:10:26.516Z,4.00
2019-05-03T05:12:56.158Z,4.70
2019-05-03T05:15:26.668Z,3.97
2019-05-03T05:18:05.666Z,3.90
2019-05-03T05:20:45.271Z,3.73
2019-05-03T05:23:14.928Z,4.53
2019-05-03T05:25:55.001Z,4.20
2019-05-03T05:28:29.155Z,2.07
2019-05-03T05:30:58.784Z,2.97
2019-05-03T05:33:28.703Z,1.47
2019-05-03T05:35:58.289Z,1.10
2019-05-03T05:38:27.913Z,1.10
2019-05-03T05:40:57.555Z,0.80
2019-05-03T05:43:27.216Z,0.73
2019-05-03T05:45:58.901Z,0.60
2019-05-03T05:48:29.845Z,0.70
2019-05-03T05:50:59.453Z,0.80
2019-05-03T05:53:29.084Z,0.80
2019-05-03T05:56:12.128Z,0.80
2019-05-03T05:58:45.046Z,0.80
2019-05-03T06:01:16.390Z,0.70
2019-05-03T06:03:45.987Z,0.70
2019-05-03T06:06:17.258Z,0.90
2019-05-03T06:08:48.493Z,0.87
2019-05-03T06:11:17.906Z,0.60
2019-05-03T06:14:00.978Z,0.70
2019-05-03T06:16:32.234Z,0.60
2019-05-03T06:19:09.234Z,0.50
2019-05-03T06:21:47.653Z,0.50
2019-05-03T06:24:15.719Z,0.50
2019-05-03T06:26:49.710Z,0.30
2019-05-03T06:29:19.295Z,0.30
2019-05-03T06:32:06.764Z,0.63
2019-05-03T06:34:36.747Z,0.63
2019-05-03T06:37:10.746Z,0.70
2019-05-03T06:39:40.337Z,0.77
2019-05-03T06:42:14.522Z,0.70
2019-05-03T06:44:41.307Z,0.60
2019-05-03T06:47:10.885Z,0.73
2019-05-03T06:49:44.787Z,0.70
2019-05-03T06:52:11.883Z,0.67
2019-05-03T06:54:41.522Z,0.60
2019-05-03T06:57:14.688Z,0.80
2019-05-03T06:59:48.232Z,0.80
2019-05-03T07:02:28.751Z,1.17
2019-05-03T07:05:00.085Z,0.67
2019-05-03T07:07:49.526Z,0.63
2019-05-03T07:10:20.828Z,0.93
2019-05-03T07:13:01.051Z,0.57
2019-05-03T07:15:30.892Z,0.97
2019-05-03T07:18:00.613Z,0.67
2019-05-03T07:20:32.074Z,0.53
2019-05-03T07:23:01.928Z,0.60
2019-05-03T07:25:31.618Z,0.40
2019-05-03T07:28:01.375Z,0.50
2019-05-03T07:30:30.970Z,0.63
2019-05-03T07:33:02.220Z,0.83
2019-05-03T07:35:31.828Z,0.60
2019-05-03T07:38:01.454Z,0.63
2019-05-03T07:40:31.908Z,0.60
2019-05-03T07:43:01.538Z,0.63
2019-05-03T07:45:31.136Z,0.37
2019-05-03T07:48:00.892Z,0.47
2019-05-03T07:50:33.014Z,0.87
2019-05-03T07:53:01.799Z,0.53
2019-05-03T07:55:48.798Z,0.40
2019-05-03T07:58:25.876Z,0.40
2019-05-03T08:01:06.173Z,0.53
2019-05-03T08:03:28.505Z,0.30
2019-05-03T08:05:58.101Z,0.40
2019-05-03T08:08:28.000Z,0.23
2019-05-03T08:10:57.638Z,0.40
2019-05-03T08:13:27.396Z,0.37
2019-05-03T08:15:57.026Z,0.30
2019-05-03T08:18:26.690Z,0.43
2019-05-03T08:20:56.295Z,0.20
2019-05-03T08:23:29.947Z,0.20
2019-05-03T08:25:57.265Z,0.30
2019-05-03T08:28:26.952Z,0.50
2019-05-03T08:31:15.074Z,0.30
2019-05-03T08:34:01.107Z,0.30
2019-05-03T08:36:32.338Z,0.30
2019-05-03T08:39:01.937Z,0.30
2019-05-03T08:41:35.092Z,0.40
2019-05-03T08:44:05.190Z,0.43
2019-05-03T08:46:35.611Z,0.35
2019-05-03T08:49:05.348Z,0.50
2019-05-03T08:51:35.261Z,0.40
2019-05-03T08:54:06.018Z,0.33
2019-05-03T08:56:35.660Z,0.37
2019-05-03T08:59:05.251Z,2.83
2019-05-03T09:01:37.729Z,0.30
2019-05-03T09:04:06.335Z,0.40
2019-05-03T09:06:36.017Z,0.40
2019-05-03T09:09:09.558Z,0.50
2019-05-03T09:11:39.218Z,0.28
2019-05-03T09:14:10.487Z,0.20
2019-05-03T09:16:40.079Z,0.33
2019-05-03T09:19:09.693Z,0.53
2019-05-03T09:21:39.354Z,0.40
2019-05-03T09:24:09.457Z,0.30
2019-05-03T09:26:39.048Z,0.30
2019-05-03T09:29:08.855Z,0.37
2019-05-03T09:31:38.996Z,0.40
2019-05-03T09:34:08.637Z,0.40
2019-05-03T09:36:38.234Z,0.30
2019-05-03T09:39:09.236Z,0.50
2019-05-03T09:41:38.837Z,0.40
2019-05-03T09:44:08.537Z,0.50
2019-05-03T09:46:38.197Z,0.55
2019-05-03T09:49:13.341Z,0.70
2019-05-03T09:51:39.124Z,0.35
2019-05-03T09:54:19.119Z,0.30
2019-05-03T09:56:58.744Z,0.42
2019-05-03T09:59:29.907Z,0.57
2019-05-03T10:02:00.073Z,0.60
2019-05-03T10:04:29.734Z,0.50
2019-05-03T10:06:59.442Z,0.30
2019-05-03T10:09:29.108Z,0.40
2019-05-03T10:11:59.274Z,0.50
2019-05-03T10:14:28.974Z,0.72
2019-05-03T10:17:00.250Z,0.40
2019-05-03T10:19:39.628Z,0.50
2019-05-03T10:22:01.269Z,0.40
2019-05-03T10:24:30.934Z,0.53
2019-05-03T10:27:00.530Z,0.50
2019-05-03T10:29:30.160Z,0.57
2019-05-03T10:32:10.180Z,0.53
2019-05-03T10:34:41.433Z,0.60
2019-05-03T10:37:15.076Z,0.93
2019-05-03T10:39:45.512Z,0.72
2019-05-03T10:42:15.155Z,0.70
2019-05-03T10:44:44.965Z,1.10
2019-05-03T10:47:14.753Z,1.00
2019-05-03T10:49:45.758Z,1.10
2019-05-03T10:52:16.662Z,0.80
2019-05-03T10:54:46.251Z,0.97
2019-05-03T10:57:17.521Z,0.80
2019-05-03T10:59:47.115Z,1.77
2019-05-03T11:02:16.587Z,1.10
2019-05-03T11:04:46.314Z,1.00
2019-05-03T11:07:15.885Z,0.70
2019-05-03T11:09:51.531Z,0.50
2019-05-03T11:12:16.830Z,0.80
2019-05-03T11:14:46.543Z,0.90
2019-05-03T11:17:16.512Z,1.10
2019-05-03T11:19:46.115Z,1.10
2019-05-03T11:22:15.818Z,1.30
2019-05-03T11:24:45.606Z,1.27
2019-05-03T11:27:16.935Z,1.30
2019-05-03T11:29:46.528Z,1.47
2019-05-03T11:32:25.478Z,1.20
2019-05-03T11:35:11.686Z,1.10
2019-05-03T11:37:42.569Z,1.37
2019-05-03T11:40:12.670Z,1.60
2019-05-03T11:42:42.306Z,2.20
2019-05-03T11:45:12.200Z,2.50
2019-05-03T11:47:41.842Z,2.00
2019-05-03T11:50:14.675Z,1.50
2019-05-03T11:52:46.774Z,1.97
2019-05-03T11:55:16.090Z,1.47
2019-05-03T11:57:45.819Z,1.92
2019-05-03T12:00:17.498Z,2.23
2019-05-03T12:02:48.775Z,1.43
2019-05-03T12:05:25.857Z,1.55
2019-05-03T12:07:55.442Z,1.83
2019-05-03T12:10:36.585Z,1.70
2019-05-03T12:13:15.746Z,1.90
2019-05-03T12:15:45.519Z,1.73
2019-05-03T12:18:16.315Z,2.00
2019-05-03T12:20:47.802Z,1.97
2019-05-03T12:23:18.461Z,2.30
2019-05-03T12:25:49.007Z,2.03
2019-05-03T12:28:18.975Z,2.10
2019-05-03T12:30:48.680Z,2.20
2019-05-03T12:33:18.298Z,2.10
2019-05-03T12:35:47.931Z,1.80
2019-05-03T12:38:17.525Z,1.80
2019-05-03T12:40:47.185Z,1.67
2019-05-03T12:43:16.822Z,1.70
2019-05-03T12:45:46.534Z,1.80
2019-05-03T12:48:16.181Z,1.97
2019-05-03T12:50:46.832Z,1.90
2019-05-03T12:53:16.806Z,1.80
2019-05-03T12:55:46.440Z,1.87
2019-05-03T12:58:16.039Z,1.90
2019-05-03T13:00:48.757Z,1.40
2019-05-03T13:03:29.210Z,1.50
2019-05-03T13:05:58.886Z,1.60
2019-05-03T13:08:40.658Z,0.90
2019-05-03T13:11:10.630Z,1.33
2019-05-03T13:13:40.339Z,0.80
2019-05-03T13:16:11.709Z,0.60
2019-05-03T13:18:41.307Z,0.60
2019-05-03T13:21:10.967Z,1.00
2019-05-03T13:23:40.585Z,1.17
2019-05-03T13:26:10.179Z,1.10
2019-05-03T13:28:39.814Z,0.93
2019-05-03T13:31:09.417Z,1.20
2019-05-03T13:33:39.088Z,1.10
2019-05-03T13:36:08.792Z,1.17
2019-05-03T13:38:38.388Z,1.00
2019-05-03T13:41:08.051Z,1.00
2019-05-03T13:43:37.689Z,0.80
2019-05-03T13:46:07.350Z,1.20
2019-05-03T13:48:45.575Z,1.50
2019-05-03T13:51:08.342Z,0.90
2019-05-03T13:53:37.934Z,1.10
2019-05-03T13:56:07.639Z,1.20
2019-05-03T13:58:37.232Z,1.80
2019-05-03T14:01:07.001Z,1.30
2019-05-03T14:03:36.766Z,1.30
2019-05-03T14:06:08.437Z,0.90
2019-05-03T14:08:37.735Z,1.00
2019-05-03T14:11:07.397Z,1.00
2019-05-03T14:13:37.008Z,1.30
2019-05-03T14:16:07.128Z,0.97
2019-05-03T14:18:36.922Z,1.20
2019-05-03T14:21:06.353Z,1.40
2019-05-03T14:23:53.609Z,2.23
2019-05-03T14:26:24.562Z,6.23
2019-05-03T14:28:54.802Z,3.90
2019-05-03T14:31:25.172Z,3.30
2019-05-03T14:33:55.868Z,2.60
2019-05-03T14:36:25.650Z,2.13
2019-05-03T14:38:55.248Z,2.23
2019-05-03T14:41:25.516Z,1.77
2019-05-03T14:43:55.768Z,2.30
2019-05-03T14:46:32.896Z,1.83
2019-05-03T14:48:56.877Z,1.30
2019-05-03T14:51:26.673Z,1.10
2019-05-03T14:53:57.541Z,1.07
2019-05-03T14:56:31.542Z,1.20
2019-05-03T14:59:18.782Z,1.40
2019-05-03T15:01:50.018Z,1.93
2019-05-03T15:04:19.654Z,1.10
2019-05-03T15:06:49.259Z,1.30
2019-05-03T15:09:19.215Z,2.33
2019-05-03T15:11:48.879Z,2.50
2019-05-03T15:14:18.471Z,2.37
2019-05-03T15:16:48.098Z,3.40
2019-05-03T15:19:17.736Z,2.30
2019-05-03T15:21:47.374Z,1.97
2019-05-03T15:24:16.971Z,1.53
2019-05-03T15:26:46.814Z,0.90
2019-05-03T15:29:16.456Z,1.63
2019-05-03T15:31:46.040Z,3.40
2019-05-03T15:34:15.669Z,2.23
2019-05-03T15:36:45.262Z,1.17
2019-05-03T15:39:15.416Z,1.73
2019-05-03T15:41:45.089Z,2.80
2019-05-03T15:44:19.218Z,4.50
2019-05-03T15:46:50.493Z,5.90
2019-05-03T15:49:20.159Z,10.57
2019-05-03T15:51:49.799Z,10.70
2019-05-03T15:54:19.428Z,9.20
2019-05-03T15:56:49.023Z,7.63
2019-05-03T15:59:18.724Z,6.33
2019-05-03T16:01:48.321Z,1.50
2019-05-03T16:04:17.949Z,1.60
2019-05-03T16:06:47.548Z,1.87
2019-05-03T16:09:17.152Z,2.07
2019-05-03T16:11:46.789Z,2.23
2019-05-03T16:14:16.418Z,2.50
2019-05-03T16:16:46.122Z,2.13
2019-05-03T16:19:15.715Z,1.90
2019-05-03T16:21:45.439Z,1.70
2019-05-03T16:24:15.458Z,2.63
2019-05-03T16:26:56.045Z,2.37
2019-05-03T16:29:25.704Z,2.13
2019-05-03T16:31:55.337Z,1.40
2019-05-03T16:34:24.933Z,1.80
2019-05-03T16:36:54.924Z,1.57
2019-05-03T16:39:26.925Z,1.80
2019-05-03T16:41:56.019Z,2.03
2019-05-03T16:44:26.020Z,2.57
2019-05-03T16:46:55.614Z,1.70
2019-05-03T16:49:25.257Z,2.03
2019-05-03T16:51:54.928Z,2.20
2019-05-03T16:54:25.451Z,2.33
2019-05-03T16:56:55.140Z,1.90
2019-05-03T16:59:24.893Z,1.87
2019-05-03T17:01:55.194Z,2.57
2019-05-03T17:04:35.362Z,2.10
2019-05-03T17:07:07.640Z,2.33
2019-05-03T17:09:39.883Z,1.90
2019-05-03T17:12:11.143Z,1.83
2019-05-03T17:14:40.774Z,2.20
2019-05-03T17:17:10.434Z,1.90
2019-05-03T17:19:40.066Z,2.00
2019-05-03T17:22:09.662Z,2.03
2019-05-03T17:24:39.270Z,2.03
2019-05-03T17:27:09.044Z,2.17
2019-05-03T17:29:38.635Z,1.70
2019-05-03T17:32:10.918Z,1.80
2019-05-03T17:34:39.694Z,1.80
2019-05-03T17:37:09.280Z,1.63
2019-05-03T17:39:56.589Z,1.83
2019-05-03T17:42:45.227Z,1.90
2019-05-03T17:45:16.726Z,2.03
2019-05-03T17:47:46.406Z,2.37
2019-05-03T17:50:16.084Z,2.80
2019-05-03T17:53:01.991Z,3.57
2019-05-03T17:55:35.238Z,4.23
2019-05-03T17:58:24.288Z,4.73
2019-05-03T18:01:05.789Z,4.73
2019-05-03T18:03:37.021Z,5.90
2019-05-03T18:06:08.344Z,7.40
2019-05-03T18:08:39.687Z,6.33
2019-05-03T18:11:11.108Z,5.90
2019-05-03T18:13:40.742Z,5.30
2019-05-03T18:16:10.401Z,5.23
2019-05-03T18:18:40.015Z,6.33
2019-05-03T18:21:09.650Z,7.33
2019-05-03T18:23:39.254Z,13.60
2019-05-03T18:26:10.953Z,14.30
2019-05-03T18:28:40.348Z,9.27
2019-05-03T18:31:10.041Z,5.77
2019-05-03T18:33:39.632Z,5.23
2019-05-03T18:36:09.257Z,4.70
2019-05-03T18:38:39.419Z,4.60
2019-05-03T18:41:10.738Z,5.17
2019-05-03T18:43:48.135Z,4.87
2019-05-03T18:46:31.290Z,4.90
2019-05-03T18:49:00.928Z,4.13
2019-05-03T18:51:30.522Z,4.00
2019-05-03T18:54:00.161Z,3.63
2019-05-03T18:56:29.770Z,3.70
2019-05-03T18:58:59.413Z,4.30
2019-05-03T19:01:29.110Z,3.80
2019-05-03T19:04:00.375Z,3.17
2019-05-03T19:06:29.967Z,3.00
2019-05-03T19:09:01.204Z,3.20
2019-05-03T19:11:32.612Z,2.90
2019-05-03T19:14:04.676Z,2.60
2019-05-03T19:16:40.417Z,2.03
2019-05-03T19:19:11.074Z,2.90
2019-05-03T19:21:40.739Z,3.13
2019-05-03T19:24:10.372Z,3.30
2019-05-03T19:26:39.964Z,2.93
2019-05-03T19:29:09.574Z,2.73
2019-05-03T19:31:39.686Z,2.80
2019-05-03T19:34:09.291Z,3.03
2019-05-03T19:36:39.071Z,3.13
2019-05-03T19:39:09.274Z,2.77
2019-05-03T19:41:38.882Z,2.70
2019-05-03T19:44:08.479Z,2.50
2019-05-03T19:46:38.107Z,2.50
2019-05-03T19:49:07.704Z,2.70
2019-05-03T19:51:37.331Z,2.87
2019-05-03T19:54:07.016Z,3.33
2019-05-03T19:56:36.621Z,3.63
2019-05-03T19:59:07.958Z,4.40
2019-05-03T20:01:45.126Z,4.57
2019-05-03T20:04:17.094Z,4.73
2019-05-03T20:06:54.503Z,5.17
2019-05-03T20:09:25.756Z,5.33
2019-05-03T20:11:55.471Z,6.87
2019-05-03T20:14:25.793Z,7.57
2019-05-03T20:16:55.518Z,7.57
2019-05-03T20:19:25.772Z,6.80
2019-05-03T20:21:56.651Z,5.90
2019-05-03T20:24:26.496Z,5.20
2019-05-03T20:26:56.091Z,4.40
2019-05-03T20:29:25.688Z,5.10
2019-05-03T20:31:55.351Z,4.50
2019-05-03T20:34:25.087Z,4.17
2019-05-03T20:36:54.921Z,4.40
2019-05-03T20:39:25.399Z,5.57
2019-05-03T20:41:55.332Z,6.03
2019-05-03T20:44:27.200Z,4.63
2019-05-03T20:46:58.428Z,3.83
2019-05-03T20:49:28.048Z,3.57
2019-05-03T20:51:57.661Z,3.70
2019-05-03T20:54:27.516Z,3.50
2019-05-03T20:56:57.198Z,3.30
2019-05-03T20:59:26.833Z,3.83
2019-05-03T21:01:56.422Z,3.37
2019-05-03T21:04:27.145Z,2.83
2019-05-03T21:06:56.753Z,2.23
2019-05-03T21:09:26.377Z,2.70
2019-05-03T21:11:56.019Z,1.97
2019-05-03T21:14:25.611Z,2.00
2019-05-03T21:16:56.842Z,1.50
2019-05-03T21:19:35.290Z,1.70
2019-05-03T21:22:06.703Z,2.10
2019-05-03T21:24:45.439Z,2.30
2019-05-03T21:27:15.299Z,2.10
2019-05-03T21:29:49.631Z,1.67
2019-05-03T21:32:19.433Z,1.63
2019-05-03T21:34:49.526Z,1.53
2019-05-03T21:37:19.158Z,1.90
2019-05-03T21:39:48.888Z,1.80
2019-05-03T21:42:18.515Z,1.83
2019-05-03T21:44:48.110Z,1.97
2019-05-03T21:47:29.475Z,1.83
2019-05-03T21:50:00.844Z,1.30
2019-05-03T21:52:30.434Z,1.00
2019-05-03T21:55:00.049Z,0.87
2019-05-03T21:57:29.682Z,1.10
2019-05-03T21:59:59.279Z,0.93
2019-05-03T22:02:29.162Z,1.00
2019-05-03T22:04:58.912Z,1.10
2019-05-03T22:07:28.541Z,1.13
2019-05-03T22:09:58.138Z,1.20
2019-05-03T22:12:27.769Z,1.27
2019-05-03T22:15:14.980Z,1.40
2019-05-03T22:17:46.255Z,1.20
2019-05-03T22:20:24.594Z,1.40
2019-05-03T22:22:55.946Z,1.37
2019-05-03T22:25:27.186Z,2.10
2019-05-03T22:27:56.819Z,2.03
2019-05-03T22:30:26.917Z,2.17
2019-05-03T22:32:56.702Z,2.17
2019-05-03T22:35:26.293Z,2.03
2019-05-03T22:37:55.963Z,1.83
2019-05-03T22:40:25.593Z,2.00
2019-05-03T22:42:55.251Z,2.20
2019-05-03T22:45:24.847Z,2.13
2019-05-03T22:47:54.983Z,1.77
2019-05-03T22:50:25.515Z,1.80
2019-05-03T22:52:55.336Z,1.87
2019-05-03T22:55:24.933Z,2.00
2019-05-03T22:57:54.689Z,2.00
2019-05-03T23:00:25.160Z,2.07
2019-05-03T23:02:54.991Z,2.30
2019-05-03T23:05:24.623Z,2.07
2019-05-03T23:07:55.289Z,1.77
2019-05-03T23:10:25.718Z,1.77
2019-05-03T23:12:55.487Z,1.63
2019-05-03T23:15:25.187Z,1.47
2019-05-03T23:17:54.883Z,1.50
2019-05-03T23:20:38.213Z,1.90
2019-05-03T23:23:09.452Z,2.00
2019-05-03T23:25:39.078Z,1.83
2019-05-03T23:28:08.669Z,2.03
2019-05-03T23:30:38.311Z,2.10
2019-05-03T23:33:07.904Z,2.00
2019-05-03T23:35:37.494Z,2.80
2019-05-03T23:38:07.106Z,2.20
2019-05-03T23:40:36.743Z,2.10
2019-05-03T23:43:06.362Z,2.30
2019-05-03T23:45:35.972Z,2.00
2019-05-03T23:48:05.651Z,2.00
2019-05-03T23:50:35.481Z,1.80
2019-05-03T23:53:05.154Z,2.23
2019-05-03T23:55:39.204Z,2.10
2019-05-03T23:58:08.849Z,2.13
